sensor_id;sensor_type;location;lat;lon;timestamp;pressure;altitude;pressure_sealevel;temperature;humidity
70833;BME280;58452;59.418;17.962;2022-07-23T00:01:29;100871.00;;;17.65;75.00
70833;BME280;58452;59.418;17.962;2022-07-23T00:03:55;100868.19;;;17.66;74.90
70833;BME280;58452;59.418;17.962;2022-07-23T00:06:21;100876.34;;;17.56;75.06
70833;BME280;58452;59.418;17.962;2022-07-23T00:08:47;100880.75;;;17.41;75.52
70833;BME280;58452;59.418;17.962;2022-07-23T00:11:12;100878.59;;;17.30;75.93
70833;BME280;58452;59.418;17.962;2022-07-23T00:13:38;100878.06;;;17.20;76.58
70833;BME280;58452;59.418;17.962;2022-07-23T00:16:03;100880.31;;;17.08;76.63
70833;BME280;58452;59.418;17.962;2022-07-23T00:18:29;100874.81;;;17.18;76.57
70833;BME280;58452;59.418;17.962;2022-07-23T00:20:54;100874.44;;;17.21;76.27
70833;BME280;58452;59.418;17.962;2022-07-23T00:23:20;100886.44;;;17.01;77.18
70833;BME280;58452;59.418;17.962;2022-07-23T00:25:45;100880.13;;;16.95;77.31
70833;BME280;58452;59.418;17.962;2022-07-23T00:28:11;100882.66;;;17.03;77.70
70833;BME280;58452;59.418;17.962;2022-07-23T00:30:37;100881.38;;;17.14;76.87
70833;BME280;58452;59.418;17.962;2022-07-23T00:33:06;100881.81;;;17.18;76.78
70833;BME280;58452;59.418;17.962;2022-07-23T00:35:39;100883.72;;;17.24;76.37
70833;BME280;58452;59.418;17.962;2022-07-23T00:38:06;100888.50;;;17.20;76.56
70833;BME280;58452;59.418;17.962;2022-07-23T00:40:33;100890.75;;;17.23;76.37
70833;BME280;58452;59.418;17.962;2022-07-23T00:42:58;100890.81;;;17.30;75.87
70833;BME280;58452;59.418;17.962;2022-07-23T00:45:25;100889.75;;;17.24;76.20
70833;BME280;58452;59.418;17.962;2022-07-23T00:47:50;100886.72;;;17.21;76.19
70833;BME280;58452;59.418;17.962;2022-07-23T00:50:16;100890.47;;;17.18;76.21
70833;BME280;58452;59.418;17.962;2022-07-23T00:52:42;100886.88;;;16.90;77.33
70833;BME280;58452;59.418;17.962;2022-07-23T00:55:09;100890.31;;;17.05;76.99
70833;BME280;58452;59.418;17.962;2022-07-23T00:57:36;100892.63;;;17.00;76.83
70833;BME280;58452;59.418;17.962;2022-07-23T01:00:03;100881.66;;;16.90;77.24
70833;BME280;58452;59.418;17.962;2022-07-23T01:02:29;100885.78;;;16.84;77.47
70833;BME280;58452;59.418;17.962;2022-07-23T01:04:54;100882.44;;;16.38;79.36
70833;BME280;58452;59.418;17.962;2022-07-23T01:07:20;100896.38;;;16.00;80.55
70833;BME280;58452;59.418;17.962;2022-07-23T01:09:47;100892.75;;;15.55;83.28
70833;BME280;58452;59.418;17.962;2022-07-23T01:12:12;100898.56;;;15.57;83.00
70833;BME280;58452;59.418;17.962;2022-07-23T01:14:38;100896.66;;;15.43;83.93
70833;BME280;58452;59.418;17.962;2022-07-23T01:17:03;100893.22;;;15.59;83.19
70833;BME280;58452;59.418;17.962;2022-07-23T01:19:29;100884.97;;;15.39;83.61
70833;BME280;58452;59.418;17.962;2022-07-23T01:21:56;100892.53;;;15.18;84.73
70833;BME280;58452;59.418;17.962;2022-07-23T01:24:22;100886.53;;;15.18;84.96
70833;BME280;58452;59.418;17.962;2022-07-23T01:26:48;100879.00;;;15.23;84.82
70833;BME280;58452;59.418;17.962;2022-07-23T01:29:15;100883.56;;;15.21;84.29
70833;BME280;58452;59.418;17.962;2022-07-23T01:31:42;100888.84;;;14.96;85.22
70833;BME280;58452;59.418;17.962;2022-07-23T01:34:08;100886.56;;;15.01;84.78
70833;BME280;58452;59.418;17.962;2022-07-23T01:36:35;100884.78;;;14.94;85.34
70833;BME280;58452;59.418;17.962;2022-07-23T01:39:01;100887.97;;;15.12;84.45
70833;BME280;58452;59.418;17.962;2022-07-23T01:41:27;100887.38;;;15.02;85.03
70833;BME280;58452;59.418;17.962;2022-07-23T01:43:52;100882.28;;;15.16;84.69
70833;BME280;58452;59.418;17.962;2022-07-23T01:46:18;100890.28;;;15.15;84.70
70833;BME280;58452;59.418;17.962;2022-07-23T01:48:43;100889.91;;;15.26;84.07
70833;BME280;58452;59.418;17.962;2022-07-23T01:51:09;100889.22;;;15.32;83.52
70833;BME280;58452;59.418;17.962;2022-07-23T01:53:34;100885.66;;;15.33;83.29
70833;BME280;58452;59.418;17.962;2022-07-23T01:56:00;100877.28;;;15.15;83.63
70833;BME280;58452;59.418;17.962;2022-07-23T01:58:26;100874.59;;;14.76;84.96
70833;BME280;58452;59.418;17.962;2022-07-23T02:00:52;100875.06;;;14.88;84.76
70833;BME280;58452;59.418;17.962;2022-07-23T02:03:18;100870.53;;;14.82;84.65
70833;BME280;58452;59.418;17.962;2022-07-23T02:05:43;100868.88;;;14.97;84.39
70833;BME280;58452;59.418;17.962;2022-07-23T02:08:08;100869.16;;;15.10;83.56
70833;BME280;58452;59.418;17.962;2022-07-23T02:10:34;100873.66;;;15.16;82.88
70833;BME280;58452;59.418;17.962;2022-07-23T02:12:59;100869.47;;;15.15;82.33
70833;BME280;58452;59.418;17.962;2022-07-23T02:15:25;100867.00;;;15.22;81.99
70833;BME280;58452;59.418;17.962;2022-07-23T02:17:50;100865.13;;;15.38;81.80
70833;BME280;58452;59.418;17.962;2022-07-23T02:20:15;100864.97;;;15.40;81.11
70833;BME280;58452;59.418;17.962;2022-07-23T02:22:41;100862.75;;;15.29;81.50
70833;BME280;58452;59.418;17.962;2022-07-23T02:25:07;100860.13;;;15.37;80.93
70833;BME280;58452;59.418;17.962;2022-07-23T02:27:33;100857.34;;;15.38;80.62
70833;BME280;58452;59.418;17.962;2022-07-23T02:29:59;100861.22;;;15.42;80.21
70833;BME280;58452;59.418;17.962;2022-07-23T02:32:25;100862.34;;;15.48;80.04
70833;BME280;58452;59.418;17.962;2022-07-23T02:34:51;100859.75;;;15.48;79.68
70833;BME280;58452;59.418;17.962;2022-07-23T02:37:17;100855.66;;;15.53;79.71
70833;BME280;58452;59.418;17.962;2022-07-23T02:39:42;100856.00;;;15.50;79.83
70833;BME280;58452;59.418;17.962;2022-07-23T02:42:07;100850.81;;;15.50;79.65
70833;BME280;58452;59.418;17.962;2022-07-23T02:44:33;100855.63;;;15.61;79.54
70833;BME280;58452;59.418;17.962;2022-07-23T02:46:58;100853.38;;;15.58;79.28
70833;BME280;58452;59.418;17.962;2022-07-23T02:49:24;100858.38;;;15.29;80.41
70833;BME280;58452;59.418;17.962;2022-07-23T02:51:49;100852.47;;;15.35;79.72
70833;BME280;58452;59.418;17.962;2022-07-23T02:54:15;100859.69;;;15.25;79.40
70833;BME280;58452;59.418;17.962;2022-07-23T02:56:40;100860.63;;;15.32;79.57
70833;BME280;58452;59.418;17.962;2022-07-23T02:59:06;100865.13;;;15.38;79.09
70833;BME280;58452;59.418;17.962;2022-07-23T03:01:32;100870.72;;;15.27;79.53
70833;BME280;58452;59.418;17.962;2022-07-23T03:03:57;100873.06;;;14.98;80.30
70833;BME280;58452;59.418;17.962;2022-07-23T03:06:23;100881.00;;;15.04;80.33
70833;BME280;58452;59.418;17.962;2022-07-23T03:08:48;100880.84;;;15.14;79.68
70833;BME280;58452;59.418;17.962;2022-07-23T03:11:13;100882.75;;;15.28;79.47
70833;BME280;58452;59.418;17.962;2022-07-23T03:13:40;100881.44;;;15.24;79.00
70833;BME280;58452;59.418;17.962;2022-07-23T03:16:06;100881.09;;;15.27;79.37
70833;BME280;58452;59.418;17.962;2022-07-23T03:18:31;100889.00;;;15.03;80.17
70833;BME280;58452;59.418;17.962;2022-07-23T03:20:57;100889.34;;;15.00;80.35
70833;BME280;58452;59.418;17.962;2022-07-23T03:23:22;100898.38;;;15.12;80.00
70833;BME280;58452;59.418;17.962;2022-07-23T03:25:48;100900.34;;;15.18;79.68
70833;BME280;58452;59.418;17.962;2022-07-23T03:28:14;100902.84;;;15.34;79.54
70833;BME280;58452;59.418;17.962;2022-07-23T03:30:44;100899.06;;;15.45;79.30
70833;BME280;58452;59.418;17.962;2022-07-23T03:33:15;100898.59;;;15.49;79.21
70833;BME280;58452;59.418;17.962;2022-07-23T03:35:42;100895.00;;;15.58;78.53
70833;BME280;58452;59.418;17.962;2022-07-23T03:38:08;100902.22;;;15.40;78.96
70833;BME280;58452;59.418;17.962;2022-07-23T03:40:33;100890.66;;;15.43;79.32
70833;BME280;58452;59.418;17.962;2022-07-23T03:42:58;100888.84;;;15.51;78.57
70833;BME280;58452;59.418;17.962;2022-07-23T03:45:24;100890.28;;;15.62;77.98
70833;BME280;58452;59.418;17.962;2022-07-23T03:47:49;100891.69;;;15.73;77.78
70833;BME280;58452;59.418;17.962;2022-07-23T03:50:15;100867.59;;;15.71;77.54
70833;BME280;58452;59.418;17.962;2022-07-23T03:52:40;100878.53;;;15.66;77.93
70833;BME280;58452;59.418;17.962;2022-07-23T03:55:06;100879.88;;;15.62;78.06
70833;BME280;58452;59.418;17.962;2022-07-23T03:57:32;100882.22;;;15.41;78.83
70833;BME280;58452;59.418;17.962;2022-07-23T03:59:57;100880.59;;;15.40;78.64
70833;BME280;58452;59.418;17.962;2022-07-23T04:02:22;100886.84;;;15.14;79.67
70833;BME280;58452;59.418;17.962;2022-07-23T04:04:48;100883.34;;;15.38;79.78
70833;BME280;58452;59.418;17.962;2022-07-23T04:07:14;100887.22;;;15.42;79.35
70833;BME280;58452;59.418;17.962;2022-07-23T04:09:39;100887.38;;;15.49;78.88
70833;BME280;58452;59.418;17.962;2022-07-23T04:12:06;100888.84;;;15.51;78.94
70833;BME280;58452;59.418;17.962;2022-07-23T04:14:32;100896.31;;;15.46;79.04
70833;BME280;58452;59.418;17.962;2022-07-23T04:16:58;100896.81;;;15.50;78.99
70833;BME280;58452;59.418;17.962;2022-07-23T04:19:24;100897.88;;;15.63;78.51
70833;BME280;58452;59.418;17.962;2022-07-23T04:21:50;100894.16;;;15.66;78.06
70833;BME280;58452;59.418;17.962;2022-07-23T04:24:15;100893.97;;;15.68;78.03
70833;BME280;58452;59.418;17.962;2022-07-23T04:26:40;100888.09;;;15.74;78.22
70833;BME280;58452;59.418;17.962;2022-07-23T04:29:06;100885.44;;;15.82;77.62
70833;BME280;58452;59.418;17.962;2022-07-23T04:31:31;100890.13;;;15.86;77.23
70833;BME280;58452;59.418;17.962;2022-07-23T04:33:57;100903.19;;;15.39;78.94
70833;BME280;58452;59.418;17.962;2022-07-23T04:36:22;100898.50;;;15.27;79.56
70833;BME280;58452;59.418;17.962;2022-07-23T04:38:47;100907.09;;;15.35;79.23
70833;BME280;58452;59.418;17.962;2022-07-23T04:41:13;100906.72;;;15.46;78.87
70833;BME280;58452;59.418;17.962;2022-07-23T04:43:38;100912.75;;;15.47;78.99
70833;BME280;58452;59.418;17.962;2022-07-23T04:46:04;100901.97;;;15.11;80.31
70833;BME280;58452;59.418;17.962;2022-07-23T04:48:29;100901.31;;;15.17;80.16
70833;BME280;58452;59.418;17.962;2022-07-23T04:50:54;100902.69;;;14.89;81.42
70833;BME280;58452;59.418;17.962;2022-07-23T04:53:20;100898.78;;;14.93;80.88
70833;BME280;58452;59.418;17.962;2022-07-23T04:55:45;100899.41;;;14.87;81.68
70833;BME280;58452;59.418;17.962;2022-07-23T04:58:11;100905.25;;;14.97;81.19
70833;BME280;58452;59.418;17.962;2022-07-23T05:00:36;100893.56;;;14.93;81.19
70833;BME280;58452;59.418;17.962;2022-07-23T05:03:02;100900.34;;;15.10;80.65
70833;BME280;58452;59.418;17.962;2022-07-23T05:05:27;100897.38;;;15.21;80.54
70833;BME280;58452;59.418;17.962;2022-07-23T05:07:53;100902.72;;;15.36;80.25
70833;BME280;58452;59.418;17.962;2022-07-23T05:10:18;100904.50;;;15.35;79.58
70833;BME280;58452;59.418;17.962;2022-07-23T05:12:43;100900.72;;;15.38;79.48
70833;BME280;58452;59.418;17.962;2022-07-23T05:15:09;100902.69;;;15.52;79.24
70833;BME280;58452;59.418;17.962;2022-07-23T05:17:34;100910.75;;;15.65;79.18
70833;BME280;58452;59.418;17.962;2022-07-23T05:20:00;100909.22;;;15.71;77.79
70833;BME280;58452;59.418;17.962;2022-07-23T05:22:25;100906.25;;;15.82;77.39
70833;BME280;58452;59.418;17.962;2022-07-23T05:24:51;100909.50;;;15.84;76.98
70833;BME280;58452;59.418;17.962;2022-07-23T05:27:16;100913.66;;;15.93;76.92
70833;BME280;58452;59.418;17.962;2022-07-23T05:29:41;100906.97;;;15.98;76.68
70833;BME280;58452;59.418;17.962;2022-07-23T05:32:07;100909.53;;;16.06;76.41
70833;BME280;58452;59.418;17.962;2022-07-23T05:34:32;100908.03;;;16.12;75.86
70833;BME280;58452;59.418;17.962;2022-07-23T05:36:58;100904.09;;;16.16;75.83
70833;BME280;58452;59.418;17.962;2022-07-23T05:39:23;100898.53;;;16.19;75.84
70833;BME280;58452;59.418;17.962;2022-07-23T05:41:48;100899.44;;;16.26;75.42
70833;BME280;58452;59.418;17.962;2022-07-23T05:44:14;100907.13;;;15.97;76.39
70833;BME280;58452;59.418;17.962;2022-07-23T05:46:39;100921.00;;;15.67;77.39
70833;BME280;58452;59.418;17.962;2022-07-23T05:49:04;100918.38;;;15.67;77.42
70833;BME280;58452;59.418;17.962;2022-07-23T05:51:30;100921.88;;;15.82;76.99
70833;BME280;58452;59.418;17.962;2022-07-23T05:53:55;100915.38;;;15.78;77.30
70833;BME280;58452;59.418;17.962;2022-07-23T05:56:21;100924.53;;;15.96;76.81
70833;BME280;58452;59.418;17.962;2022-07-23T05:58:46;100922.16;;;15.87;76.87
70833;BME280;58452;59.418;17.962;2022-07-23T06:01:11;100924.84;;;15.71;76.46
70833;BME280;58452;59.418;17.962;2022-07-23T06:03:38;100917.34;;;15.76;77.19
70833;BME280;58452;59.418;17.962;2022-07-23T06:06:04;100918.97;;;15.77;76.85
70833;BME280;58452;59.418;17.962;2022-07-23T06:08:29;100909.38;;;15.77;77.14
70833;BME280;58452;59.418;17.962;2022-07-23T06:10:55;100913.34;;;15.96;76.78
70833;BME280;58452;59.418;17.962;2022-07-23T06:13:20;100915.53;;;16.07;76.21
70833;BME280;58452;59.418;17.962;2022-07-23T06:15:46;100910.28;;;16.15;75.20
70833;BME280;58452;59.418;17.962;2022-07-23T06:18:11;100909.75;;;16.20;75.05
70833;BME280;58452;59.418;17.962;2022-07-23T06:20:36;100902.47;;;16.15;74.73
70833;BME280;58452;59.418;17.962;2022-07-23T06:23:02;100905.38;;;16.20;75.20
70833;BME280;58452;59.418;17.962;2022-07-23T06:25:28;100894.59;;;16.23;74.61
70833;BME280;58452;59.418;17.962;2022-07-23T06:27:53;100894.28;;;16.18;75.23
70833;BME280;58452;59.418;17.962;2022-07-23T06:30:18;100894.13;;;16.20;74.98
70833;BME280;58452;59.418;17.962;2022-07-23T06:32:48;100894.53;;;16.31;74.30
70833;BME280;58452;59.418;17.962;2022-07-23T06:35:13;100885.09;;;16.30;74.53
70833;BME280;58452;59.418;17.962;2022-07-23T06:37:39;100892.59;;;16.48;74.25
70833;BME280;58452;59.418;17.962;2022-07-23T06:40:04;100897.25;;;16.60;73.51
70833;BME280;58452;59.418;17.962;2022-07-23T06:42:30;100891.06;;;16.62;72.53
70833;BME280;58452;59.418;17.962;2022-07-23T06:44:55;100887.00;;;16.59;72.91
70833;BME280;58452;59.418;17.962;2022-07-23T06:47:21;100887.28;;;16.64;72.72
70833;BME280;58452;59.418;17.962;2022-07-23T06:49:46;100891.97;;;16.69;72.55
70833;BME280;58452;59.418;17.962;2022-07-23T06:52:12;100886.56;;;16.70;72.32
70833;BME280;58452;59.418;17.962;2022-07-23T06:54:37;100884.69;;;16.79;72.08
70833;BME280;58452;59.418;17.962;2022-07-23T06:57:03;100891.28;;;16.89;71.71
70833;BME280;58452;59.418;17.962;2022-07-23T06:59:28;100894.69;;;16.90;71.83
70833;BME280;58452;59.418;17.962;2022-07-23T07:01:54;100893.81;;;16.97;72.60
70833;BME280;58452;59.418;17.962;2022-07-23T07:04:19;100894.16;;;17.09;72.52
70833;BME280;58452;59.418;17.962;2022-07-23T07:06:44;100896.06;;;17.15;71.12
70833;BME280;58452;59.418;17.962;2022-07-23T07:09:10;100907.09;;;17.17;71.31
70833;BME280;58452;59.418;17.962;2022-07-23T07:11:40;100907.00;;;17.25;70.34
70833;BME280;58452;59.418;17.962;2022-07-23T07:14:07;100902.16;;;17.22;70.97
70833;BME280;58452;59.418;17.962;2022-07-23T07:16:32;100900.91;;;17.18;71.15
70833;BME280;58452;59.418;17.962;2022-07-23T07:18:58;100899.56;;;17.22;71.59
70833;BME280;58452;59.418;17.962;2022-07-23T07:21:23;100904.31;;;17.33;70.33
70833;BME280;58452;59.418;17.962;2022-07-23T07:23:48;100897.31;;;17.34;69.65
70833;BME280;58452;59.418;17.962;2022-07-23T07:26:14;100912.88;;;17.27;70.64
70833;BME280;58452;59.418;17.962;2022-07-23T07:28:39;100908.19;;;17.23;70.99
70833;BME280;58452;59.418;17.962;2022-07-23T07:31:05;100908.63;;;17.26;70.88
70833;BME280;58452;59.418;17.962;2022-07-23T07:33:30;100917.81;;;17.22;71.02
70833;BME280;58452;59.418;17.962;2022-07-23T07:35:57;100917.91;;;17.14;71.41
70833;BME280;58452;59.418;17.962;2022-07-23T07:38:22;100918.47;;;17.24;71.13
70833;BME280;58452;59.418;17.962;2022-07-23T07:40:48;100925.91;;;17.27;70.90
70833;BME280;58452;59.418;17.962;2022-07-23T07:43:13;100919.94;;;16.75;72.20
70833;BME280;58452;59.418;17.962;2022-07-23T07:45:38;100923.97;;;16.77;72.42
70833;BME280;58452;59.418;17.962;2022-07-23T07:48:04;100924.31;;;16.74;72.59
70833;BME280;58452;59.418;17.962;2022-07-23T07:50:30;100933.38;;;16.64;72.98
70833;BME280;58452;59.418;17.962;2022-07-23T07:52:56;100928.63;;;16.67;73.30
70833;BME280;58452;59.418;17.962;2022-07-23T07:55:21;100928.56;;;16.52;73.66
70833;BME280;58452;59.418;17.962;2022-07-23T07:57:47;100927.13;;;16.73;74.12
70833;BME280;58452;59.418;17.962;2022-07-23T08:00:12;100933.13;;;16.73;73.55
70833;BME280;58452;59.418;17.962;2022-07-23T08:05:07;100934.78;;;16.89;73.27
70833;BME280;58452;59.418;17.962;2022-07-23T08:07:33;100939.94;;;16.97;72.28
70833;BME280;58452;59.418;17.962;2022-07-23T08:09:58;100938.06;;;17.05;71.50
70833;BME280;58452;59.418;17.962;2022-07-23T08:12:24;100942.59;;;16.89;71.84
70833;BME280;58452;59.418;17.962;2022-07-23T08:14:49;100942.22;;;16.77;72.22
70833;BME280;58452;59.418;17.962;2022-07-23T08:17:14;100940.53;;;16.84;72.33
70833;BME280;58452;59.418;17.962;2022-07-23T08:19:40;100942.59;;;16.89;72.15
70833;BME280;58452;59.418;17.962;2022-07-23T08:22:05;100950.34;;;16.97;72.36
70833;BME280;58452;59.418;17.962;2022-07-23T08:24:31;100949.88;;;16.79;72.36
70833;BME280;58452;59.418;17.962;2022-07-23T08:26:56;100955.56;;;16.97;72.37
70833;BME280;58452;59.418;17.962;2022-07-23T08:29:21;100963.13;;;17.06;72.39
70833;BME280;58452;59.418;17.962;2022-07-23T08:31:47;100966.13;;;16.81;72.92
70833;BME280;58452;59.418;17.962;2022-07-23T08:34:12;100960.31;;;16.93;71.72
70833;BME280;58452;59.418;17.962;2022-07-23T08:36:37;100958.34;;;16.95;71.98
70833;BME280;58452;59.418;17.962;2022-07-23T08:39:03;100964.59;;;17.09;72.14
70833;BME280;58452;59.418;17.962;2022-07-23T08:41:29;100955.69;;;17.18;71.07
70833;BME280;58452;59.418;17.962;2022-07-23T08:43:54;100963.31;;;17.05;72.13
70833;BME280;58452;59.418;17.962;2022-07-23T08:46:22;100956.03;;;17.15;71.72
70833;BME280;58452;59.418;17.962;2022-07-23T08:48:49;100955.97;;;17.23;71.18
70833;BME280;58452;59.418;17.962;2022-07-23T08:51:15;100959.56;;;17.22;71.70
70833;BME280;58452;59.418;17.962;2022-07-23T08:53:42;100967.66;;;17.27;71.01
70833;BME280;58452;59.418;17.962;2022-07-23T08:56:08;100971.34;;;17.33;71.30
70833;BME280;58452;59.418;17.962;2022-07-23T08:58:34;100974.47;;;17.43;70.92
70833;BME280;58452;59.418;17.962;2022-07-23T09:01:00;100981.97;;;17.46;70.71
70833;BME280;58452;59.418;17.962;2022-07-23T09:03:28;100986.19;;;17.47;70.59
70833;BME280;58452;59.418;17.962;2022-07-23T09:05:54;100981.69;;;17.55;70.35
70833;BME280;58452;59.418;17.962;2022-07-23T09:08:25;100984.41;;;17.62;69.98
70833;BME280;58452;59.418;17.962;2022-07-23T09:10:57;100979.28;;;17.69;70.12
70833;BME280;58452;59.418;17.962;2022-07-23T09:13:39;100984.75;;;17.74;69.76
70833;BME280;58452;59.418;17.962;2022-07-23T09:18:38;100987.09;;;17.69;70.02
70833;BME280;58452;59.418;17.962;2022-07-23T09:21:18;100989.00;;;17.75;70.00
70833;BME280;58452;59.418;17.962;2022-07-23T09:23:50;100992.50;;;17.82;69.70
70833;BME280;58452;59.418;17.962;2022-07-23T09:26:20;100991.97;;;17.72;70.41
70833;BME280;58452;59.418;17.962;2022-07-23T09:31:20;100993.56;;;17.43;70.82
70833;BME280;58452;59.418;17.962;2022-07-23T09:33:45;100987.63;;;17.49;70.78
70833;BME280;58452;59.418;17.962;2022-07-23T09:36:11;100987.06;;;17.39;70.80
70833;BME280;58452;59.418;17.962;2022-07-23T09:38:48;100988.72;;;17.55;71.59
70833;BME280;58452;59.418;17.962;2022-07-23T09:41:14;100986.09;;;17.55;71.17
70833;BME280;58452;59.418;17.962;2022-07-23T09:43:40;100987.63;;;17.49;70.55
70833;BME280;58452;59.418;17.962;2022-07-23T09:48:50;100994.81;;;17.47;70.61
70833;BME280;58452;59.418;17.962;2022-07-23T09:51:17;101002.47;;;17.34;71.49
70833;BME280;58452;59.418;17.962;2022-07-23T09:53:55;100999.31;;;17.24;72.08
70833;BME280;58452;59.418;17.962;2022-07-23T09:56:20;101005.88;;;17.20;72.40
70833;BME280;58452;59.418;17.962;2022-07-23T09:58:49;100997.34;;;17.26;71.50
70833;BME280;58452;59.418;17.962;2022-07-23T10:01:15;101003.16;;;17.28;72.10
70833;BME280;58452;59.418;17.962;2022-07-23T10:03:42;101005.69;;;17.22;71.59
70833;BME280;58452;59.418;17.962;2022-07-23T10:06:09;101007.41;;;17.29;71.22
70833;BME280;58452;59.418;17.962;2022-07-23T10:08:35;101013.44;;;17.30;70.76
70833;BME280;58452;59.418;17.962;2022-07-23T10:11:01;101006.88;;;17.34;70.68
70833;BME280;58452;59.418;17.962;2022-07-23T10:13:29;101009.22;;;17.43;70.96
70833;BME280;58452;59.418;17.962;2022-07-23T10:16:16;101005.53;;;17.52;70.64
70833;BME280;58452;59.418;17.962;2022-07-23T10:18:41;101008.34;;;17.66;70.16
70833;BME280;58452;59.418;17.962;2022-07-23T10:21:08;101004.84;;;17.73;70.41
70833;BME280;58452;59.418;17.962;2022-07-23T10:23:43;101008.53;;;17.79;69.87
70833;BME280;58452;59.418;17.962;2022-07-23T10:26:34;101013.38;;;17.52;70.25
70833;BME280;58452;59.418;17.962;2022-07-23T10:29:07;101013.81;;;17.56;70.32
70833;BME280;58452;59.418;17.962;2022-07-23T10:37:31;101019.88;;;17.56;70.17
70833;BME280;58452;59.418;17.962;2022-07-23T10:40:17;101028.66;;;17.55;70.21
70833;BME280;58452;59.418;17.962;2022-07-23T10:42:47;101027.34;;;17.60;70.08
70833;BME280;58452;59.418;17.962;2022-07-23T10:45:24;101029.13;;;17.44;71.01
70833;BME280;58452;59.418;17.962;2022-07-23T10:47:51;101021.47;;;17.57;71.20
70833;BME280;58452;59.418;17.962;2022-07-23T10:57:57;101031.31;;;17.18;72.42
70833;BME280;58452;59.418;17.962;2022-07-23T11:00:24;101031.31;;;17.18;73.26
70833;BME280;58452;59.418;17.962;2022-07-23T11:02:51;101027.06;;;17.02;72.60
70833;BME280;58452;59.418;17.962;2022-07-23T11:05:20;101024.06;;;16.91;72.34
70833;BME280;58452;59.418;17.962;2022-07-23T11:16:23;101034.34;;;17.07;71.65
70833;BME280;58452;59.418;17.962;2022-07-23T11:24:04;101042.47;;;17.12;71.16
70833;BME280;58452;59.418;17.962;2022-07-23T11:26:54;101042.47;;;17.12;71.13
70833;BME280;58452;59.418;17.962;2022-07-23T11:37:05;101040.13;;;17.17;71.19
70833;BME280;58452;59.418;17.962;2022-07-23T11:39:32;101046.97;;;17.18;70.87
70833;BME280;58452;59.418;17.962;2022-07-23T11:41:59;101049.19;;;17.06;71.37
70833;BME280;58452;59.418;17.962;2022-07-23T11:44:33;101044.31;;;17.03;72.47
70833;BME280;58452;59.418;17.962;2022-07-23T11:47:00;101046.94;;;17.03;71.47
70833;BME280;58452;59.418;17.962;2022-07-23T11:49:27;101048.97;;;17.16;71.46
70833;BME280;58452;59.418;17.962;2022-07-23T11:52:09;101044.31;;;17.03;70.87
70833;BME280;58452;59.418;17.962;2022-07-23T11:54:59;101041.56;;;17.05;70.95
70833;BME280;58452;59.418;17.962;2022-07-23T11:57:30;101034.72;;;17.04;71.22
70833;BME280;58452;59.418;17.962;2022-07-23T12:00:02;101035.38;;;17.06;70.99
70833;BME280;58452;59.418;17.962;2022-07-23T12:02:29;101026.81;;;17.12;70.40
70833;BME280;58452;59.418;17.962;2022-07-23T12:04:54;101024.22;;;17.12;70.72
70833;BME280;58452;59.418;17.962;2022-07-23T12:07:40;101018.94;;;17.20;71.13
70833;BME280;58452;59.418;17.962;2022-07-23T12:12:41;101032.81;;;17.35;70.46
70833;BME280;58452;59.418;17.962;2022-07-23T12:15:08;101024.63;;;17.38;70.46
70833;BME280;58452;59.418;17.962;2022-07-23T12:17:36;101027.13;;;17.46;69.28
70833;BME280;58452;59.418;17.962;2022-07-23T12:20:05;101023.44;;;17.55;69.15
70833;BME280;58452;59.418;17.962;2022-07-23T12:25:09;101027.41;;;17.51;69.11
70833;BME280;58452;59.418;17.962;2022-07-23T12:27:36;101033.34;;;17.45;68.61
70833;BME280;58452;59.418;17.962;2022-07-23T12:30:31;101031.94;;;17.57;68.78
70833;BME280;58452;59.418;17.962;2022-07-23T12:32:58;101033.56;;;17.58;68.39
70833;BME280;58452;59.418;17.962;2022-07-23T12:35:31;101029.66;;;17.54;68.63
70833;BME280;58452;59.418;17.962;2022-07-23T12:38:00;101037.31;;;17.41;68.69
70833;BME280;58452;59.418;17.962;2022-07-23T12:40:33;101042.16;;;17.44;68.72
70833;BME280;58452;59.418;17.962;2022-07-23T12:43:07;101031.00;;;17.50;68.76
70833;BME280;58452;59.418;17.962;2022-07-23T12:48:38;101032.56;;;17.60;68.97
70833;BME280;58452;59.418;17.962;2022-07-23T12:51:08;101038.06;;;17.65;69.00
70833;BME280;58452;59.418;17.962;2022-07-23T12:53:39;101035.34;;;17.73;68.66
70833;BME280;58452;59.418;17.962;2022-07-23T12:56:14;101036.38;;;17.72;68.97
70833;BME280;58452;59.418;17.962;2022-07-23T12:58:49;101036.44;;;17.78;68.44
70833;BME280;58452;59.418;17.962;2022-07-23T13:04:02;101040.69;;;17.79;67.58
70833;BME280;58452;59.418;17.962;2022-07-23T13:06:30;101045.25;;;17.77;67.59
70833;BME280;58452;59.418;17.962;2022-07-23T13:08:57;101038.84;;;17.80;67.81
70833;BME280;58452;59.418;17.962;2022-07-23T13:11:22;101039.59;;;17.88;67.83
70833;BME280;58452;59.418;17.962;2022-07-23T13:13:50;101046.88;;;17.93;67.30
70833;BME280;58452;59.418;17.962;2022-07-23T13:16:17;101041.66;;;17.64;67.10
70833;BME280;58452;59.418;17.962;2022-07-23T13:18:42;101047.50;;;17.66;67.19
70833;BME280;58452;59.418;17.962;2022-07-23T13:21:08;101054.28;;;17.75;67.54
70833;BME280;58452;59.418;17.962;2022-07-23T13:23:34;101048.84;;;17.76;67.01
70833;BME280;58452;59.418;17.962;2022-07-23T13:25:59;101055.16;;;17.82;66.86
70833;BME280;58452;59.418;17.962;2022-07-23T13:28:25;101048.53;;;17.65;67.03
70833;BME280;58452;59.418;17.962;2022-07-23T13:30:51;101054.72;;;17.64;67.33
70833;BME280;58452;59.418;17.962;2022-07-23T13:33:19;101059.66;;;17.58;67.97
70833;BME280;58452;59.418;17.962;2022-07-23T13:35:45;101056.69;;;17.62;67.90